Presque Isle, ME (04769)

2:59 AM EDT on March 23, 2017 (GMT -0400)
MC7595 | | Change Station
Active Advisory: Wind Chill Advisory Active Notice: Public Information Statement

Elev 649 ft 46.69 °N, 67.99 °W | Updated 50 minutes ago

Clear
Clear
5.0 °F
Feels Like -6 °F
N
6.0
Wind Variable Wind from WNW
Gusts 19.0 mph

Today
High -- | Low -- °F
--% Chance of Precip.
Yesterday
High -- | Low -- °F
Precip. -- in
Pressure 30.26 in
Visibility 10.0 miles
Clouds Clear
Windchill -6 °F
Dew Point -9 °F
Humidity 52%
Rainfall in
Snow Depth Not available.
6:28 AM 6:49 PM
Waning Crescent, 25% visible
METAR KPQI 230656Z AUTO 32013KT 10SM CLR M14/M22 A3011 RMK AO2 PK WND 33026/0644 SLP245 T11441222 FZRANO
Pressure 30.26 in
Visibility 10.0 miles
Clouds Clear
Windchill -6 °F
Dew Point -9 °F
Humidity 52%
Rainfall in
Snow Depth Not available.
6:28 AM 6:49 PM
Waning Crescent, 25% visible
METAR KPQI 230656Z AUTO 32013KT 10SM CLR M14/M22 A3011 RMK AO2 PK WND 33026/0644 SLP245 T11441222 FZRANO

Get Your Daily Forecast Email!

Thanks for signing up!

Be on the lookout for a verification email in your inbox.

You'll start receiving severe weather alerts in your inbox..

×

10-Day Weather Forecast

Almanac

Astronomy

Mar. 23, 2017 Rise Set
Actual Time
Civil Twilight
Nautical Twilight
Astronomical Twilight
Moon
Length of Visible Light
Length of Day
Tomorrow will be .
, % of the Moon is Illuminated

Today's Extremes

State Highs State Lows

Community

WunderPhotos

Upload Photos

1,962,540 photos uploaded!

WunderBlog® & News

Nearby

Air Quality

  Air Quality AQ Index Pollutant
Not available.

Snow Depth

Station Depth Elevation

Earthquake Activity

City Distance Mag. Time & Date
Minimum magnitude displayed is 2.5.

Earthquake Activity

City Distance Mag. Time & Date
Minimum magnitude displayed is 2.5.

Coastal Water Temperatures

Place Temperature

Stations

Nearby Weather Stations

Station Location Temp. Windchill Dew Point Humidity Wind Precip. Elev Updated Type
                   

Watches & Warnings

Wind Chill Advisory
Issued: 9:21 PM EDT Mar. 22, 2017 – National Weather Service

... Wind Chill Advisory in effect from 1 am to 8 am EDT Thursday...

The National Weather Service in Caribou has issued a Wind Chill
Advisory... which is in effect from 1 am to 8 am EDT Thursday.

* Locations... far northern Maine.

* Hazard types... low wind chills.

* Wind chill readings... 20 to 25 below.

* Timing... overnight into early Thursday morning.

* Impacts... dangerous wind chills may quickly produce frostbite
on exposed skin.

Precautionary/preparedness actions...

A Wind Chill Advisory means that very cold air and strong winds
will combine to generate low wind chills. This will result in
frost bite and lead to hypothermia if precautions are not taken.
If you must venture outdoors... make sure you wear a hat and
gloves.



Cb